Time;durP1;ratioP1;P1;durP2;ratioP2;P2;SDS_P1;SDS_P2;PMS_P1;PMS_P2;Temp;Humidity;BMP_temperature;BMP_pressure;BME280_temperature;BME280_humidity;BME280_pressure;Samples;Min_cycle;Max_cycle;Signal;HPM_P1;HPM_P2
2022/03/27 00:01:24;;;;;;;2.70;2.20;;;;;;;;;;5026355;28;20596;-79
2022/03/27 00:03:51;;;;;;;3.33;2.08;;;;;;;;;;5024127;28;20657;-79
2022/03/27 00:06:18;;;;;;;3.38;2.47;;;;;;;;;;5017109;28;20212;-77
2022/03/27 00:08:45;;;;;;;4.28;2.17;;;;;;;;;;5024326;28;20678;-79
2022/03/27 00:11:28;;;;;;;3.45;1.90;;;;;;;;;;5019937;28;20203;-77
2022/03/27 00:13:56;;;;;;;2.30;1.83;;;;;;;;;;5019182;28;20575;-77
2022/03/27 00:16:24;;;;;;;2.10;1.90;;;;;;;;;;5020022;28;20224;-76
2022/03/27 00:18:52;;;;;;;2.53;2.33;;;;;;;;;;5023032;28;20196;-77
2022/03/27 00:21:20;;;;;;;3.85;2.25;;;;;;;;;;5025756;28;20199;-77
2022/03/27 00:23:47;;;;;;;2.30;2.03;;;;;;;;;;5027861;28;20745;-79
2022/03/27 00:26:15;;;;;;;2.97;2.70;;;;;;;;;;5023524;28;20199;-78
2022/03/27 00:28:42;;;;;;;3.72;2.95;;;;;;;;;;5026170;28;20604;-79
2022/03/27 00:31:10;;;;;;;2.10;1.90;;;;;;;;;;5029281;28;20196;-77
2022/03/27 00:33:39;;;;;;;3.78;2.25;;;;;;;;;;5037600;28;20195;-79
2022/03/27 00:36:07;;;;;;;2.30;1.88;;;;;;;;;;5034991;28;20219;-79
2022/03/27 00:38:34;;;;;;;3.22;2.40;;;;;;;;;;5028504;28;20207;-80
2022/03/27 00:41:01;;;;;;;2.10;1.90;;;;;;;;;;5032898;28;20202;-79
2022/03/27 00:43:28;;;;;;;3.22;2.25;;;;;;;;;;5051036;28;20604;-80
2022/03/27 00:45:56;;;;;;;4.28;3.17;;;;;;;;;;5031478;28;20214;-81
2022/03/27 00:48:24;;;;;;;2.72;2.53;;;;;;;;;;5034552;28;20215;-80
2022/03/27 00:50:53;;;;;;;3.67;2.60;;;;;;;;;;5036414;28;20237;-80
2022/03/27 00:53:21;;;;;;;3.92;2.25;;;;;;;;;;5027516;28;20199;-81
2022/03/27 00:55:49;;;;;;;4.22;2.13;;;;;;;;;;5029240;28;20219;-81
2022/03/27 00:58:16;;;;;;;3.05;1.98;;;;;;;;;;5026073;28;20226;-79
2022/03/27 01:00:45;;;;;;;4.82;2.47;;;;;;;;;;5028869;28;20557;-79
2022/03/27 01:03:13;;;;;;;3.35;3.05;;;;;;;;;;5034060;28;20205;-79
2022/03/27 01:05:40;;;;;;;4.90;3.28;;;;;;;;;;5031382;28;20665;-79
2022/03/27 01:08:10;;;;;;;4.63;2.15;;;;;;;;;;5033433;28;20192;-79
2022/03/27 01:10:36;;;;;;;10.15;3.85;;;;;;;;;;5031134;28;20199;-79
2022/03/27 01:13:05;;;;;;;3.95;2.28;;;;;;;;;;5032556;28;20261;-79
2022/03/27 01:15:33;;;;;;;4.38;3.15;;;;;;;;;;5025795;28;20303;-79
2022/03/27 01:18:00;;;;;;;4.18;2.00;;;;;;;;;;5032897;28;20191;-79
2022/03/27 01:20:31;;;;;;;3.75;3.10;;;;;;;;;;5032454;28;20187;-79
2022/03/27 01:22:58;;;;;;;3.70;3.40;;;;;;;;;;5031962;28;20191;-80
2022/03/27 01:25:25;;;;;;;3.60;2.75;;;;;;;;;;5020887;28;20227;-80
2022/03/27 01:27:52;;;;;;;4.05;2.85;;;;;;;;;;5032348;28;20650;-80
2022/03/27 01:30:19;;;;;;;8.55;4.63;;;;;;;;;;5029222;28;20197;-80
2022/03/27 01:32:50;;;;;;;4.18;3.78;;;;;;;;;;5027181;28;20605;-80
2022/03/27 01:35:17;;;;;;;3.67;2.78;;;;;;;;;;5029895;28;20304;-80
2022/03/27 01:37:46;;;;;;;3.00;2.70;;;;;;;;;;5031518;28;20233;-80
2022/03/27 01:40:13;;;;;;;2.88;2.22;;;;;;;;;;5029789;28;20187;-79
2022/03/27 01:42:40;;;;;;;4.72;2.72;;;;;;;;;;5030914;28;20196;-79
2022/03/27 01:45:08;;;;;;;2.83;2.28;;;;;;;;;;5030473;28;20200;-78
2022/03/27 01:47:35;;;;;;;5.78;3.03;;;;;;;;;;5030156;28;20290;-78
2022/03/27 01:50:03;;;;;;;3.30;2.92;;;;;;;;;;5029801;28;20196;-77
2022/03/27 01:52:30;;;;;;;4.00;3.60;;;;;;;;;;5030919;28;20233;-78
2022/03/27 01:54:58;;;;;;;3.85;3.55;;;;;;;;;;5029536;28;20215;-78
2022/03/27 01:57:25;;;;;;;3.40;3.10;;;;;;;;;;5026745;28;20194;-79
2022/03/27 01:59:52;;;;;;;3.83;3.53;;;;;;;;;;5028229;28;20195;-79
2022/03/27 02:02:23;;;;;;;3.63;3.10;;;;;;;;;;5030169;28;20539;-79
2022/03/27 02:04:50;;;;;;;9.57;4.18;;;;;;;;;;5033496;28;20195;-80
2022/03/27 02:07:18;;;;;;;6.03;3.60;;;;;;;;;;5032118;28;20226;-79
2022/03/27 02:09:45;;;;;;;4.93;4.40;;;;;;;;;;5027977;28;20223;-79
2022/03/27 02:12:13;;;;;;;4.32;4.03;;;;;;;;;;5032540;28;20199;-79
2022/03/27 02:14:40;;;;;;;4.22;3.50;;;;;;;;;;5028658;28;20207;-79
2022/03/27 02:17:08;;;;;;;4.93;3.80;;;;;;;;;;5029266;28;20276;-79
2022/03/27 02:19:35;;;;;;;4.43;3.90;;;;;;;;;;5030484;28;20203;-81
2022/03/27 02:22:02;;;;;;;5.38;4.88;;;;;;;;;;5030575;28;20215;-81
2022/03/27 02:24:29;;;;;;;6.30;4.70;;;;;;;;;;5029523;28;20241;-82
2022/03/27 02:26:56;;;;;;;7.75;6.95;;;;;;;;;;5032592;28;20206;-82
2022/03/27 02:29:25;;;;;;;6.97;6.28;;;;;;;;;;5031464;28;20412;-81
2022/03/27 02:31:52;;;;;;;7.18;6.47;;;;;;;;;;5026527;28;20207;-82
2022/03/27 02:34:20;;;;;;;6.00;4.60;;;;;;;;;;5029663;28;20204;-81
2022/03/27 02:36:47;;;;;;;6.60;4.70;;;;;;;;;;5031867;28;20716;-81
2022/03/27 02:39:14;;;;;;;5.07;4.57;;;;;;;;;;5024054;28;20238;-81
2022/03/27 02:41:41;;;;;;;6.80;5.75;;;;;;;;;;5025566;28;20196;-85
2022/03/27 02:44:12;;;;;;;7.68;6.65;;;;;;;;;;5023364;28;20271;-82
2022/03/27 02:46:40;;;;;;;8.07;6.30;;;;;;;;;;5028192;28;20617;-81
2022/03/27 02:49:08;;;;;;;6.75;5.95;;;;;;;;;;5024892;28;20214;-80
2022/03/27 02:51:35;;;;;;;8.35;6.40;;;;;;;;;;5029569;28;20202;-81
2022/03/27 02:54:04;;;;;;;7.55;6.75;;;;;;;;;;5030483;28;20198;-81
2022/03/27 02:56:32;;;;;;;6.85;5.93;;;;;;;;;;5031178;28;20219;-79
2022/03/27 02:58:59;;;;;;;7.22;6.53;;;;;;;;;;5030480;28;20564;-80
2022/03/27 03:01:26;;;;;;;8.70;7.18;;;;;;;;;;5024805;28;20195;-77
2022/03/27 03:03:55;;;;;;;7.50;6.80;;;;;;;;;;5030379;28;20187;-77
2022/03/27 03:06:24;;;;;;;8.40;7.60;;;;;;;;;;5030349;28;20615;-80
2022/03/27 03:08:51;;;;;;;6.85;6.15;;;;;;;;;;5026357;28;20218;-80
2022/03/27 03:11:20;;;;;;;7.10;6.40;;;;;;;;;;5032034;28;20195;-79
2022/03/27 03:13:47;;;;;;;6.97;6.28;;;;;;;;;;5029841;28;20244;-81
2022/03/27 03:16:16;;;;;;;6.57;5.90;;;;;;;;;;5026114;28;20243;-79
2022/03/27 03:18:43;;;;;;;9.07;6.20;;;;;;;;;;5026113;28;20196;-79
2022/03/27 03:21:12;;;;;;;6.88;6.28;;;;;;;;;;5029847;28;20230;-79
2022/03/27 03:23:39;;;;;;;8.07;6.63;;;;;;;;;;5026715;28;20211;-79
2022/03/27 03:26:06;;;;;;;7.53;6.82;;;;;;;;;;5028658;28;20203;-79
2022/03/27 03:28:33;;;;;;;6.43;5.53;;;;;;;;;;5031107;28;20200;-78
2022/03/27 03:31:00;;;;;;;8.00;6.60;;;;;;;;;;5026963;28;20203;-78
2022/03/27 03:33:28;;;;;;;8.63;6.00;;;;;;;;;;5031357;28;20191;-80
2022/03/27 03:35:55;;;;;;;6.85;6.22;;;;;;;;;;5024881;28;20215;-80
2022/03/27 03:38:23;;;;;;;7.55;6.85;;;;;;;;;;5028670;28;20211;-79
2022/03/27 03:40:50;;;;;;;7.25;6.55;;;;;;;;;;5029850;28;20191;-80
2022/03/27 03:43:20;;;;;;;6.88;6.20;;;;;;;;;;5031210;28;20188;-80
2022/03/27 03:45:47;;;;;;;7.95;6.82;;;;;;;;;;5027455;28;20195;-82
2022/03/27 03:48:14;;;;;;;6.30;5.80;;;;;;;;;;5030584;28;20195;-80
2022/03/27 03:50:41;;;;;;;7.97;7.05;;;;;;;;;;5029969;28;20203;-80
2022/03/27 03:53:08;;;;;;;6.72;5.65;;;;;;;;;;5029401;28;20665;-79
2022/03/27 03:55:38;;;;;;;6.80;6.20;;;;;;;;;;5020304;28;20560;-79
2022/03/27 03:58:06;;;;;;;7.05;6.35;;;;;;;;;;5019417;28;20202;-79
2022/03/27 04:00:33;;;;;;;6.15;5.63;;;;;;;;;;5028807;28;20195;-79
2022/03/27 04:03:00;;;;;;;8.07;7.28;;;;;;;;;;5034199;28;20268;-79
2022/03/27 04:05:27;;;;;;;8.45;6.78;;;;;;;;;;5032897;28;20202;-79
2022/03/27 04:07:54;;;;;;;9.30;6.93;;;;;;;;;;5033873;28;20551;-80
2022/03/27 04:10:21;;;;;;;7.80;7.00;;;;;;;;;;5026004;28;20195;-77
2022/03/27 04:12:50;;;;;;;7.03;6.32;;;;;;;;;;5032217;28;20203;-77
2022/03/27 04:15:17;;;;;;;7.70;6.50;;;;;;;;;;5028909;28;20200;-78
2022/03/27 04:17:44;;;;;;;7.43;6.50;;;;;;;;;;5033937;28;20223;-77
2022/03/27 04:20:12;;;;;;;6.60;5.97;;;;;;;;;;5033590;28;20219;-77
2022/03/27 04:22:39;;;;;;;7.55;6.57;;;;;;;;;;5031141;28;20200;-78
2022/03/27 04:25:07;;;;;;;7.20;6.50;;;;;;;;;;5031125;28;20714;-78
2022/03/27 04:27:34;;;;;;;7.10;6.40;;;;;;;;;;5034499;28;20196;-79
2022/03/27 04:30:03;;;;;;;7.60;6.47;;;;;;;;;;5025181;28;20290;-81
2022/03/27 04:32:31;;;;;;;7.05;5.75;;;;;;;;;;5033809;28;20279;-78
2022/03/27 04:34:58;;;;;;;7.00;6.35;;;;;;;;;;5027494;28;20657;-78
2022/03/27 04:37:25;;;;;;;6.90;6.20;;;;;;;;;;5031735;28;20242;-78
2022/03/27 04:39:52;;;;;;;7.53;6.22;;;;;;;;;;5024693;28;20196;-78
2022/03/27 04:42:20;;;;;;;7.90;7.10;;;;;;;;;;5034770;28;20282;-78
2022/03/27 04:44:47;;;;;;;7.05;6.35;;;;;;;;;;5024836;28;20200;-78
2022/03/27 04:47:15;;;;;;;7.95;7.15;;;;;;;;;;5032977;28;20219;-78
2022/03/27 04:49:42;;;;;;;8.07;7.25;;;;;;;;;;5033678;28;20204;-80
2022/03/27 04:52:10;;;;;;;8.05;7.25;;;;;;;;;;5034006;28;20210;-78
2022/03/27 04:54:37;;;;;;;7.05;6.35;;;;;;;;;;5031167;28;20195;-77
2022/03/27 04:57:04;;;;;;;7.75;7.05;;;;;;;;;;5032718;28;20306;-76
2022/03/27 04:59:31;;;;;;;9.13;8.02;;;;;;;;;;5026890;28;20196;-78
2022/03/27 05:01:58;;;;;;;9.95;7.45;;;;;;;;;;5028793;28;20202;-76
2022/03/27 05:04:27;;;;;;;7.63;6.93;;;;;;;;;;5019409;28;20658;-77
2022/03/27 05:06:54;;;;;;;7.85;7.18;;;;;;;;;;5033101;28;20196;-78
2022/03/27 05:09:21;;;;;;;8.68;7.45;;;;;;;;;;5024740;28;20192;-78
2022/03/27 05:11:48;;;;;;;7.95;6.82;;;;;;;;;;5031583;28;20540;-78
2022/03/27 05:14:16;;;;;;;8.60;7.70;;;;;;;;;;5022391;28;20674;-78
2022/03/27 05:16:43;;;;;;;8.25;7.40;;;;;;;;;;5026941;28;20219;-77
2022/03/27 05:19:10;;;;;;;9.40;7.03;;;;;;;;;;5034280;28;20586;-77
2022/03/27 05:21:38;;;;;;;9.15;7.97;;;;;;;;;;5030620;28;20191;-77
2022/03/27 05:24:08;;;;;;;12.00;7.28;;;;;;;;;;5029240;28;20215;-77
2022/03/27 05:26:36;;;;;;;8.23;7.53;;;;;;;;;;5033548;28;20207;-77
2022/03/27 05:29:04;;;;;;;9.30;7.20;;;;;;;;;;5013789;28;20196;-77
2022/03/27 05:31:32;;;;;;;9.68;8.77;;;;;;;;;;5025375;28;20192;-77
2022/03/27 05:33:59;;;;;;;9.43;8.30;;;;;;;;;;5033432;28;20343;-79
2022/03/27 05:36:26;;;;;;;10.05;8.05;;;;;;;;;;5028774;28;20712;-79
2022/03/27 05:38:55;;;;;;;10.30;7.70;;;;;;;;;;5025331;28;20192;-79
2022/03/27 05:41:22;;;;;;;7.95;7.25;;;;;;;;;;5026683;28;20194;-77
2022/03/27 05:43:49;;;;;;;11.52;8.55;;;;;;;;;;5030209;28;20200;-77
2022/03/27 05:46:16;;;;;;;11.15;7.88;;;;;;;;;;5025514;28;20206;-78
2022/03/27 05:48:43;;;;;;;9.60;7.90;;;;;;;;;;5023670;28;20195;-78
2022/03/27 05:51:10;;;;;;;10.40;9.35;;;;;;;;;;5023339;28;20641;-78
2022/03/27 05:53:37;;;;;;;8.65;7.75;;;;;;;;;;5028023;28;20192;-78
2022/03/27 05:56:06;;;;;;;8.70;7.65;;;;;;;;;;5029363;28;20187;-77
2022/03/27 05:58:35;;;;;;;8.45;7.45;;;;;;;;;;5031273;28;20227;-77
2022/03/27 06:01:02;;;;;;;10.45;9.25;;;;;;;;;;5026688;28;20279;-77
2022/03/27 06:03:29;;;;;;;9.40;8.10;;;;;;;;;;5030145;28;20191;-77
2022/03/27 06:05:56;;;;;;;10.45;8.75;;;;;;;;;;5031769;28;20283;-77
2022/03/27 06:08:23;;;;;;;10.00;8.57;;;;;;;;;;5027660;28;20200;-77
2022/03/27 06:10:50;;;;;;;10.80;8.60;;;;;;;;;;5029256;28;20697;-77
2022/03/27 06:13:19;;;;;;;9.00;8.02;;;;;;;;;;5016798;28;20196;-83
2022/03/27 06:15:47;;;;;;;8.95;8.05;;;;;;;;;;5017661;28;20571;-81
2022/03/27 06:18:14;;;;;;;7.95;7.25;;;;;;;;;;5031444;28;20223;-82
2022/03/27 06:20:42;;;;;;;8.38;7.57;;;;;;;;;;5029976;28;20192;-83
2022/03/27 06:23:09;;;;;;;9.18;8.27;;;;;;;;;;5027419;28;20241;-81
2022/03/27 06:25:38;;;;;;;9.38;8.10;;;;;;;;;;5032196;28;20227;-81
2022/03/27 06:28:05;;;;;;;9.45;8.55;;;;;;;;;;5031861;28;20199;-82
2022/03/27 06:30:34;;;;;;;8.18;7.38;;;;;;;;;;5017179;28;20211;-82
2022/03/27 06:33:02;;;;;;;12.00;8.82;;;;;;;;;;5025771;28;20610;-80
2022/03/27 06:35:29;;;;;;;10.23;8.57;;;;;;;;;;5029073;28;20191;-79
2022/03/27 06:37:57;;;;;;;8.40;7.43;;;;;;;;;;5028550;28;20211;-79
2022/03/27 06:40:24;;;;;;;10.77;8.52;;;;;;;;;;5020438;28;20199;-78
2022/03/27 06:42:51;;;;;;;9.75;8.73;;;;;;;;;;5012854;28;20214;-78
2022/03/27 06:45:19;;;;;;;8.48;7.72;;;;;;;;;;5023604;28;20191;-78
2022/03/27 06:47:49;;;;;;;8.70;7.90;;;;;;;;;;5025122;28;20334;-78
2022/03/27 06:50:16;;;;;;;9.75;8.40;;;;;;;;;;5030382;28;20306;-77
2022/03/27 06:52:44;;;;;;;9.80;8.80;;;;;;;;;;5026652;28;20199;-77
2022/03/27 06:55:11;;;;;;;8.90;7.40;;;;;;;;;;5018312;28;20258;-78
2022/03/27 06:57:39;;;;;;;11.00;8.63;;;;;;;;;;5024277;28;20215;-77
2022/03/27 07:03:06;;;;;;;13.40;8.80;;;;;;;;;;5029206;28;20206;-78
2022/03/27 07:05:36;;;;;;;9.68;7.32;;;;;;;;;;5024320;28;20205;-77
2022/03/27 07:08:04;;;;;;;9.45;8.52;;;;;;;;;;5031386;28;20708;-78
2022/03/27 07:10:31;;;;;;;8.45;7.60;;;;;;;;;;5028870;28;20310;-78
2022/03/27 07:12:59;;;;;;;10.23;9.23;;;;;;;;;;5023400;28;20192;-77
2022/03/27 07:15:26;;;;;;;9.68;8.45;;;;;;;;;;5023841;28;20199;-77
2022/03/27 07:17:54;;;;;;;9.35;8.45;;;;;;;;;;5031311;28;20231;-77
2022/03/27 07:20:24;;;;;;;11.30;9.23;;;;;;;;;;5030458;28;20192;-77
2022/03/27 07:22:52;;;;;;;10.95;9.85;;;;;;;;;;5031090;28;20568;-76
2022/03/27 07:25:19;;;;;;;11.35;10.15;;;;;;;;;;5024247;28;20265;-77
2022/03/27 07:27:46;;;;;;;11.82;10.18;;;;;;;;;;5031135;28;20198;-77
2022/03/27 07:30:13;;;;;;;11.38;9.90;;;;;;;;;;5023917;28;20215;-76
2022/03/27 07:32:40;;;;;;;9.68;8.73;;;;;;;;;;5024559;28;20195;-75
2022/03/27 07:35:10;;;;;;;11.77;9.43;;;;;;;;;;5028102;28;20203;-74
2022/03/27 07:37:38;;;;;;;11.85;10.65;;;;;;;;;;5023480;28;20212;-76
2022/03/27 07:40:08;;;;;;;12.45;10.38;;;;;;;;;;5024586;28;20187;-77
2022/03/27 07:42:35;;;;;;;11.55;9.70;;;;;;;;;;5023726;28;20247;-75
2022/03/27 07:45:02;;;;;;;12.05;9.02;;;;;;;;;;5024518;28;20196;-75
2022/03/27 07:47:29;;;;;;;9.95;8.95;;;;;;;;;;5017757;28;20203;-75
2022/03/27 07:49:57;;;;;;;11.73;9.90;;;;;;;;;;5023461;28;20200;-75
2022/03/27 07:52:25;;;;;;;14.90;11.75;;;;;;;;;;5024709;28;20199;-76
2022/03/27 07:54:52;;;;;;;13.15;11.63;;;;;;;;;;5026969;28;20194;-75
2022/03/27 07:57:20;;;;;;;14.43;12.18;;;;;;;;;;5025045;28;20223;-75
2022/03/27 07:59:47;;;;;;;13.07;10.90;;;;;;;;;;5016919;28;20219;-75
2022/03/27 08:02:14;;;;;;;12.10;9.90;;;;;;;;;;5026417;28;20188;-74
2022/03/27 08:04:41;;;;;;;9.90;8.88;;;;;;;;;;5023394;28;20554;-74
2022/03/27 08:07:08;;;;;;;14.43;8.27;;;;;;;;;;5022995;28;20196;-76
2022/03/27 08:09:37;;;;;;;8.25;6.90;;;;;;;;;;5022222;28;20258;-76
2022/03/27 08:12:07;;;;;;;10.68;8.45;;;;;;;;;;5020259;28;20602;-77
2022/03/27 08:14:34;;;;;;;8.68;7.78;;;;;;;;;;5020033;28;20202;-76
2022/03/27 08:17:01;;;;;;;9.63;7.18;;;;;;;;;;5021366;28;21240;-76
2022/03/27 08:19:28;;;;;;;9.65;8.20;;;;;;;;;;5019166;28;20203;-76
2022/03/27 08:21:55;;;;;;;13.23;10.45;;;;;;;;;;5028612;28;20191;-76
2022/03/27 08:24:23;;;;;;;11.80;8.20;;;;;;;;;;5021015;28;20578;-76
2022/03/27 08:27:02;;;;;;;9.48;7.68;;;;;;;;;;5024452;28;20276;-77
2022/03/27 08:29:31;;;;;;;8.52;7.53;;;;;;;;;;5024193;28;20188;-76
2022/03/27 08:32:00;;;;;;;16.77;8.57;;;;;;;;;;5016777;28;20187;-76
2022/03/27 08:34:28;;;;;;;10.15;8.27;;;;;;;;;;5019632;28;20212;-77
2022/03/27 08:36:55;;;;;;;9.55;7.45;;;;;;;;;;5024276;28;20562;-76
2022/03/27 08:39:22;;;;;;;9.27;8.38;;;;;;;;;;5023218;28;20199;-77
2022/03/27 08:41:52;;;;;;;8.82;7.93;;;;;;;;;;5027865;28;20249;-76
2022/03/27 08:44:20;;;;;;;11.88;9.23;;;;;;;;;;5025736;28;20215;-77
2022/03/27 08:46:48;;;;;;;7.32;6.63;;;;;;;;;;5025452;28;20195;-77
2022/03/27 08:49:25;;;;;;;7.78;6.75;;;;;;;;;;5025685;28;20219;-77
2022/03/27 08:51:56;;;;;;;8.82;7.93;;;;;;;;;;5030262;28;20187;-76
2022/03/27 08:54:25;;;;;;;8.85;7.70;;;;;;;;;;5026307;28;20218;-77
2022/03/27 08:56:59;;;;;;;9.57;8.30;;;;;;;;;;5026681;28;20203;-76
2022/03/27 08:59:27;;;;;;;9.30;8.07;;;;;;;;;;5027834;28;20193;-77
2022/03/27 09:01:55;;;;;;;8.65;7.50;;;;;;;;;;5026555;28;20196;-76
2022/03/27 09:04:22;;;;;;;7.55;6.65;;;;;;;;;;5026337;28;20196;-76
2022/03/27 09:06:49;;;;;;;9.52;8.52;;;;;;;;;;5023189;28;20661;-76
2022/03/27 09:09:16;;;;;;;11.10;9.50;;;;;;;;;;5025264;28;20188;-76
2022/03/27 09:11:44;;;;;;;8.63;7.82;;;;;;;;;;5026785;28;20195;-77
2022/03/27 09:14:11;;;;;;;10.88;9.57;;;;;;;;;;5025513;28;20197;-77
2022/03/27 09:17:02;;;;;;;9.52;8.52;;;;;;;;;;5026901;28;20218;-77
2022/03/27 09:19:36;;;;;;;8.65;7.85;;;;;;;;;;5025544;28;20286;-77
2022/03/27 09:22:14;;;;;;;9.73;8.70;;;;;;;;;;5029901;28;20202;-77
2022/03/27 09:24:41;;;;;;;10.75;9.05;;;;;;;;;;5025392;28;20585;-77
2022/03/27 09:27:08;;;;;;;9.90;8.18;;;;;;;;;;5026029;28;20223;-78
2022/03/27 09:29:59;;;;;;;9.93;7.53;;;;;;;;;;5024798;28;20200;-76
2022/03/27 09:32:28;;;;;;;9.40;8.02;;;;;;;;;;5031559;28;20200;-76
2022/03/27 09:35:02;;;;;;;9.43;8.23;;;;;;;;;;5032224;28;20195;-76
2022/03/27 09:37:30;;;;;;;7.65;6.85;;;;;;;;;;5030511;28;20215;-76
2022/03/27 09:39:57;;;;;;;8.75;7.85;;;;;;;;;;5028422;28;20199;-76
2022/03/27 09:42:24;;;;;;;9.00;8.10;;;;;;;;;;5028895;28;20569;-76
2022/03/27 09:45:09;;;;;;;11.50;9.13;;;;;;;;;;5028606;28;20199;-76
2022/03/27 09:47:38;;;;;;;10.73;9.00;;;;;;;;;;5021139;28;20218;-76
2022/03/27 09:50:05;;;;;;;9.65;8.10;;;;;;;;;;5032116;28;20195;-76
2022/03/27 09:52:33;;;;;;;9.57;8.50;;;;;;;;;;5028353;28;20203;-76
2022/03/27 09:55:01;;;;;;;11.95;8.10;;;;;;;;;;5031596;28;20199;-76
2022/03/27 09:57:30;;;;;;;9.45;6.85;;;;;;;;;;5021852;28;20235;-76
2022/03/27 09:59:59;;;;;;;9.90;8.60;;;;;;;;;;5025827;28;20203;-76
2022/03/27 10:02:27;;;;;;;10.80;8.80;;;;;;;;;;5028730;28;20202;-76
2022/03/27 10:05:12;;;;;;;8.27;7.45;;;;;;;;;;5027488;28;20623;-76
2022/03/27 10:07:42;;;;;;;10.52;8.18;;;;;;;;;;5029381;28;20207;-76
2022/03/27 10:10:10;;;;;;;9.38;8.02;;;;;;;;;;5031121;28;20199;-74
2022/03/27 10:12:38;;;;;;;7.63;6.82;;;;;;;;;;5028709;28;20199;-74
2022/03/27 10:15:06;;;;;;;8.80;7.97;;;;;;;;;;5029715;28;20203;-76
2022/03/27 10:17:34;;;;;;;8.32;7.50;;;;;;;;;;5028748;28;20199;-76
2022/03/27 10:20:04;;;;;;;10.20;8.02;;;;;;;;;;5031992;28;20539;-77
2022/03/27 10:22:32;;;;;;;10.73;7.82;;;;;;;;;;5030426;28;20206;-77
2022/03/27 10:25:03;;;;;;;10.73;8.52;;;;;;;;;;5023525;28;20219;-76
2022/03/27 10:27:31;;;;;;;7.63;6.93;;;;;;;;;;5030097;28;20206;-76
2022/03/27 10:29:59;;;;;;;7.90;6.65;;;;;;;;;;5026891;28;20199;-76
2022/03/27 10:32:26;;;;;;;8.32;7.35;;;;;;;;;;5032215;28;20696;-77
2022/03/27 10:34:59;;;;;;;8.90;7.30;;;;;;;;;;5029837;28;20678;-76
2022/03/27 10:37:30;;;;;;;9.05;7.47;;;;;;;;;;5026181;28;20209;-76
2022/03/27 10:40:01;;;;;;;9.90;7.80;;;;;;;;;;5026071;28;20219;-76
2022/03/27 10:42:34;;;;;;;8.27;7.47;;;;;;;;;;5030568;28;20191;-76
2022/03/27 10:45:04;;;;;;;7.22;6.57;;;;;;;;;;5026380;28;20670;-76
2022/03/27 10:47:31;;;;;;;7.68;6.85;;;;;;;;;;5030413;28;20206;-77
2022/03/27 10:50:16;;;;;;;8.07;7.35;;;;;;;;;;5024743;28;20196;-76
2022/03/27 10:52:59;;;;;;;8.80;7.60;;;;;;;;;;5026387;28;20221;-76
2022/03/27 10:55:36;;;;;;;7.60;6.10;;;;;;;;;;5023721;28;20203;-76
2022/03/27 10:58:25;;;;;;;7.63;6.53;;;;;;;;;;5031644;28;20219;-76
2022/03/27 11:00:52;;;;;;;7.70;7.00;;;;;;;;;;5019327;28;20196;-76
2022/03/27 11:03:34;;;;;;;6.38;5.63;;;;;;;;;;5018731;28;20192;-76
2022/03/27 11:06:01;;;;;;;6.90;6.22;;;;;;;;;;5033135;28;20198;-76
2022/03/27 11:08:46;;;;;;;9.38;6.90;;;;;;;;;;5026320;28;20290;-76
2022/03/27 11:11:13;;;;;;;7.95;7.13;;;;;;;;;;5028120;28;20352;-76
2022/03/27 11:13:43;;;;;;;8.55;6.78;;;;;;;;;;5028369;28;20218;-76
2022/03/27 11:16:11;;;;;;;7.50;6.68;;;;;;;;;;5025544;28;20249;-73
2022/03/27 11:18:39;;;;;;;5.93;5.30;;;;;;;;;;5030553;28;20226;-76
2022/03/27 11:21:07;;;;;;;6.85;6.15;;;;;;;;;;5029829;28;20187;-76
2022/03/27 11:23:38;;;;;;;8.38;6.85;;;;;;;;;;5028377;28;20335;-76
2022/03/27 11:26:06;;;;;;;6.75;6.15;;;;;;;;;;5028772;28;21516;-77
2022/03/27 11:28:48;;;;;;;6.65;6.05;;;;;;;;;;5026239;28;20207;-76
2022/03/27 11:31:18;;;;;;;5.90;5.00;;;;;;;;;;5022919;28;20223;-77
2022/03/27 11:33:45;;;;;;;8.15;5.90;;;;;;;;;;5029622;28;20291;-77
2022/03/27 11:36:25;;;;;;;6.40;5.38;;;;;;;;;;5024884;28;20187;-76
2022/03/27 11:39:01;;;;;;;5.22;4.72;;;;;;;;;;5025733;28;20328;-77
2022/03/27 11:41:30;;;;;;;6.65;5.18;;;;;;;;;;5025499;28;20619;-76
2022/03/27 11:43:59;;;;;;;5.63;4.72;;;;;;;;;;5026005;28;20670;-76
2022/03/27 11:46:27;;;;;;;5.65;5.00;;;;;;;;;;5025971;28;20257;-76
2022/03/27 11:48:55;;;;;;;7.38;5.28;;;;;;;;;;5031097;28;20203;-76
2022/03/27 11:51:24;;;;;;;6.80;4.68;;;;;;;;;;5030667;28;20219;-76
2022/03/27 11:53:52;;;;;;;6.32;4.88;;;;;;;;;;5028140;28;20271;-77
2022/03/27 11:56:19;;;;;;;6.68;5.60;;;;;;;;;;5030540;28;20216;-77
2022/03/27 11:59:03;;;;;;;4.60;4.20;;;;;;;;;;5029684;28;20273;-76
2022/03/27 12:01:31;;;;;;;5.55;5.05;;;;;;;;;;5025561;28;20233;-77
2022/03/27 12:03:59;;;;;;;4.60;4.18;;;;;;;;;;5024846;28;20223;-77
2022/03/27 12:06:28;;;;;;;5.95;5.35;;;;;;;;;;5029226;28;20654;-77
2022/03/27 12:08:55;;;;;;;6.75;4.85;;;;;;;;;;5021861;28;20738;-76
2022/03/27 12:11:23;;;;;;;4.95;3.90;;;;;;;;;;5034353;28;20211;-76
2022/03/27 12:13:50;;;;;;;5.80;5.20;;;;;;;;;;5022792;28;20216;-77
2022/03/27 12:16:20;;;;;;;5.75;4.20;;;;;;;;;;5031365;28;20191;-76
2022/03/27 12:18:48;;;;;;;6.13;5.20;;;;;;;;;;5034758;28;20713;-76
2022/03/27 12:21:18;;;;;;;6.63;4.13;;;;;;;;;;5034240;28;20196;-77
2022/03/27 12:23:49;;;;;;;4.75;4.35;;;;;;;;;;5029565;28;20767;-77
2022/03/27 12:31:59;;;;;;;4.68;4.20;;;;;;;;;;5016448;28;20246;-79
2022/03/27 12:34:28;;;;;;;4.47;3.85;;;;;;;;;;5033937;28;20245;-76
2022/03/27 12:37:12;;;;;;;4.47;3.80;;;;;;;;;;5032318;28;20226;-75
2022/03/27 12:40:01;;;;;;;4.28;3.88;;;;;;;;;;5028475;28;20320;-77
2022/03/27 12:42:35;;;;;;;5.55;4.45;;;;;;;;;;5036084;28;20286;-82
2022/03/27 12:45:02;;;;;;;3.33;3.03;;;;;;;;;;5029442;28;20200;-78
2022/03/27 12:47:33;;;;;;;3.72;3.42;;;;;;;;;;5023548;28;20196;-75
2022/03/27 12:50:02;;;;;;;3.05;2.75;;;;;;;;;;5028763;28;20319;-74
2022/03/27 12:52:29;;;;;;;3.40;3.10;;;;;;;;;;5024935;28;20291;-73
2022/03/27 12:55:00;;;;;;;4.00;3.70;;;;;;;;;;5040557;28;20701;-74
2022/03/27 12:57:42;;;;;;;3.85;3.53;;;;;;;;;;5023447;28;20214;-75
2022/03/27 13:00:13;;;;;;;3.50;3.20;;;;;;;;;;5026670;28;20215;-74
2022/03/27 13:02:40;;;;;;;4.70;4.05;;;;;;;;;;5030622;28;20219;-75
2022/03/27 13:05:09;;;;;;;5.88;4.30;;;;;;;;;;5031007;28;20203;-74
2022/03/27 13:07:52;;;;;;;3.63;3.25;;;;;;;;;;5028501;28;20207;-74
2022/03/27 13:10:19;;;;;;;3.25;2.60;;;;;;;;;;5027122;28;20291;-74
2022/03/27 13:12:46;;;;;;;4.38;3.97;;;;;;;;;;5028998;28;20203;-74
2022/03/27 13:15:13;;;;;;;4.20;3.80;;;;;;;;;;5026681;28;20207;-74
2022/03/27 13:17:40;;;;;;;4.63;4.22;;;;;;;;;;5030911;28;20200;-75
2022/03/27 13:20:11;;;;;;;7.20;4.63;;;;;;;;;;5028476;28;20452;-76
2022/03/27 13:22:43;;;;;;;4.45;3.70;;;;;;;;;;5028579;28;20733;-74
2022/03/27 13:25:10;;;;;;;4.90;4.40;;;;;;;;;;5011232;28;20254;-75
2022/03/27 13:27:37;;;;;;;5.30;4.57;;;;;;;;;;5026341;28;20608;-74
2022/03/27 13:30:06;;;;;;;3.60;3.28;;;;;;;;;;5024616;28;20235;-73
2022/03/27 13:32:34;;;;;;;6.38;3.95;;;;;;;;;;5010730;28;20220;-74
2022/03/27 13:35:01;;;;;;;3.50;3.20;;;;;;;;;;5022227;28;20191;-74
2022/03/27 13:37:29;;;;;;;4.55;3.85;;;;;;;;;;5026079;28;20232;-77
2022/03/27 13:39:56;;;;;;;5.82;4.10;;;;;;;;;;5027519;28;20698;-77
2022/03/27 13:45:08;;;;;;;3.85;3.53;;;;;;;;;;5028969;28;20497;-78
2022/03/27 13:47:35;;;;;;;5.00;4.05;;;;;;;;;;5027023;28;20199;-78
2022/03/27 13:50:02;;;;;;;4.30;3.60;;;;;;;;;;5028471;28;20213;-78
2022/03/27 13:52:31;;;;;;;4.88;4.40;;;;;;;;;;5022576;28;20203;-78
2022/03/27 13:54:58;;;;;;;3.92;3.55;;;;;;;;;;5014325;28;20424;-78
2022/03/27 13:57:26;;;;;;;3.38;3.08;;;;;;;;;;5024452;28;20203;-78
2022/03/27 13:59:53;;;;;;;5.40;3.67;;;;;;;;;;5024392;28;20224;-78
2022/03/27 14:02:21;;;;;;;4.40;3.65;;;;;;;;;;5027571;28;20196;-77
2022/03/27 14:04:48;;;;;;;2.90;2.60;;;;;;;;;;5025284;28;20199;-78
2022/03/27 14:07:15;;;;;;;3.40;3.10;;;;;;;;;;5025990;28;20203;-78
2022/03/27 14:09:44;;;;;;;3.70;3.40;;;;;;;;;;5015109;28;20207;-78
2022/03/27 14:12:11;;;;;;;3.55;3.25;;;;;;;;;;5023577;28;20195;-78
2022/03/27 14:14:41;;;;;;;3.72;3.20;;;;;;;;;;5026963;28;20202;-77
2022/03/27 14:17:09;;;;;;;4.70;3.08;;;;;;;;;;5026121;28;20207;-78
2022/03/27 14:19:37;;;;;;;4.72;4.03;;;;;;;;;;5028016;28;20306;-78
2022/03/27 14:22:04;;;;;;;4.65;3.80;;;;;;;;;;5026427;28;20194;-77
2022/03/27 14:24:32;;;;;;;4.70;4.07;;;;;;;;;;5029991;28;20282;-78
2022/03/27 14:27:00;;;;;;;3.47;3.17;;;;;;;;;;5019753;28;20206;-76
2022/03/27 14:29:27;;;;;;;8.30;3.78;;;;;;;;;;5026568;28;20207;-76
2022/03/27 14:31:55;;;;;;;5.63;3.88;;;;;;;;;;5026985;28;20196;-78
2022/03/27 14:34:22;;;;;;;4.20;3.80;;;;;;;;;;5028040;28;20230;-76
2022/03/27 14:36:50;;;;;;;5.70;5.15;;;;;;;;;;5026400;28;20222;-77
2022/03/27 14:39:17;;;;;;;3.67;3.25;;;;;;;;;;5019071;28;20223;-76
2022/03/27 14:41:45;;;;;;;4.32;3.83;;;;;;;;;;5027398;28;20210;-76
2022/03/27 14:44:14;;;;;;;5.28;4.70;;;;;;;;;;5016141;28;20196;-78
2022/03/27 14:46:41;;;;;;;4.95;4.45;;;;;;;;;;5024726;28;20210;-77
2022/03/27 14:49:10;;;;;;;4.10;3.58;;;;;;;;;;5026188;28;20199;-78
2022/03/27 14:51:37;;;;;;;5.10;4.53;;;;;;;;;;5035074;28;20211;-77
2022/03/27 14:56:49;;;;;;;5.07;4.35;;;;;;;;;;5014201;28;20331;-76
2022/03/27 14:59:17;;;;;;;5.57;4.97;;;;;;;;;;5024259;28;20215;-76
2022/03/27 15:01:45;;;;;;;7.03;4.75;;;;;;;;;;5024034;28;20204;-75
2022/03/27 15:04:14;;;;;;;6.18;4.30;;;;;;;;;;5019231;28;20570;-76